Mount Berry, GA (30149)

8:45 AM EST on February 10, 2016 (GMT -0500)
Oak Hill & The Martha Berry Museum | | Change Station
CLOSE
Current Station
Personal Weather Station
Location: Rome, GA
Elevation: 643 ft
Nearby Weather Stations
Active Advisory: Winter Weather Advisory Active Notice: Local Storm Report

Elev 643 ft 34.28 °N, 85.18 °W | Updated 7 minutes ago

Partly Cloudy
Partly Cloudy
23.9 °F
Feels Like 24 °F
N
1.1
Wind Variable Wind from NNW

Today
High -- | Low -- °F
--% Chance of Precip.
Yesterday
High -- | Low -- °F
Precip. -- in
Pressure 30.14 in
Visibility 10.0 miles
Clouds Overcast 4000 ft
Windchill 24 °F
Dew Point 16 °F
Humidity 72%
Rainfall 0.00 in
Snow Depth Not available.
7:31 AM 6:19 PM
Waxing Crescent, 5% visible
METAR KVPC 101253Z AUTO 00000KT 10SM OVC040 M05/M11 A3013 RMK AO2 SLP207 T10501106
Pressure 30.14 in
Visibility 10.0 miles
Clouds Overcast 4000 ft
Windchill 24 °F
Dew Point 16 °F
Humidity 72%
Rainfall 0.00 in
Snow Depth Not available.
7:31 AM 6:19 PM
Waxing Crescent, 5% visible
METAR KVPC 101253Z AUTO 00000KT 10SM OVC040 M05/M11 A3013 RMK AO2 SLP207 T10501106

10-Day Weather Forecast

Almanac

Astronomy

Feb. 10, 2016 Rise Set
Actual Time
Civil Twilight
Nautical Twilight
Astronomical Twilight
Moon
Length of Visible Light
Length of Day
Tomorrow will be .
, % of the Moon is Illuminated

Today's Extremes

State Highs State Lows

Community

WunderPhotos

Upload Photos

1,891,845 photos uploaded!

WunderBlog® & News

Nearby

Air Quality

  Air Quality AQ Index Pollutant
Not available.

Snow Depth

Station Depth Elevation

Earthquake Activity

City Distance Mag. Time & Date
Minimum magnitude displayed is 2.5.

Coastal Water Temperatures

Place Temperature

Stations

Nearby Weather Stations

Station Location Temp. Windchill Dew Point Humidity Wind Precip. Elev Updated Type
                   

Watches & Warnings

Winter Weather Advisory
Issued: 3:26 AM EST Feb. 10, 2016 – National Weather Service

... Winter Weather Advisory now in effect until 7 PM EST this
evening...

* locations... northwest Georgia.

* Hazard types... lingering snow showers and flurries with black
ice.

* Accumulations... little... if any... additional snowfall.

* Impacts... any lingering moisture on the roadways is expected to
refreeze and increase the potential for icy roads. Secondary
roads along with bridges and overpasses will be most prone to
the icy conditions.

Precautionary/preparedness actions...

A Winter Weather Advisory for snow means that periods of snow
will cause primarily travel difficulties. Be prepared for snow
covered roads and limited visibilities... and use caution while
driving.